KDDC/DDC METAR and TAF weather

Enter ICAO airport designator
Station Type Date Time Source
KDDC METAR 2024/04/18 06:52 UTC NOAA

KDDC 180652Z AUTO 15010KT 9SM CLR 14/03 A2972 RMK AO2 SLP037 T01440033


Station Type Date Time Source
KDDC Decoded METAR 2024/04/18 06:52 UTC NOAA

DODGE CITY REGIONAL AIRPORT, KS, United States (KDDC) 37-46N 99-58W 789M
Apr 18, 2024 - 02:52 AM EDT / 2024.04.18 0652 UTC
Wind: from the SSE (150 degrees) at 12 MPH (10 KT):0
Visibility: 9 mile(s):0
Sky conditions: clear
Temperature: 57.9 F (14.4 C)
Dew Point: 37.9 F (3.3 C)
Relative Humidity: 47%
Pressure (altimeter): 29.72 in. Hg (1006 hPa)
ob: KDDC 180652Z AUTO 15010KT 9SM CLR 14/03 A2972 RMK AO2 SLP037 T01440033
cycle: 7

Station Type Date Time Source
KDDC TAF 2024/04/18 06:33 UTC NOAA